Terminal Aerodrome Forecast
Issued by NWS

Home | Current Version | Previous Version | Graphics & Text | Print | Product List | Glossary On
Versions: 1 2 3 4 5 6 7 8 9 10 11 12 13 14
608
FTUS41 KCLE 241126
TAFFDY
TAF
KFDY 241126Z 2412/2512 23010KT P6SM SCT035 BKN120 OVC200
      TEMPO 2418/2421 3SM -TSRA BR BKN035CB OVC060
     FM242300 20006KT P6SM SCT060 BKN200
     FM251000 21006KT P6SM VCTS BKN035CB OVC120=

USA.gov is the U.S. government's official web portal to all federal, state and local government web resources and services.